Погода Шетпена неделю

Мангистауская область, Казахстан

15 - 21 июля
  • 15июля
    Сегодня
    +21°
    +33°
    Ясно и безоблачно
    ВремяПогодаТемператураВлажностьДавлениеВетер, м/сВероятность осадков
    02:00Ясно и безоблачно+21°C74 %734 мм4.3 м/с2 %
    05:00Ясно и безоблачно+20°C65 %734 мм3.9 м/с2 %
    08:00Ясно и безоблачно+24°C69 %735 мм3.1 м/с2 %
    11:00Ясно и безоблачно+28°C46 %735 мм5.5 м/с2 %
    14:00Ясно и безоблачно+32°C30 %735 мм6.4 м/с2 %
    17:00Ясно и безоблачно+32°C26 %735 мм7.0 м/с2 %
    20:00Ясно и безоблачно+29°C32 %735 мм6.2 м/с2 %
    23:00Ясно и безоблачно+25°C42 %736 мм2.9 м/с2 %
  • 16июля
    Вторник
    +21°
    +34°
    Практически безоблачно
    ВремяПогодаТемператураВлажностьДавлениеВетер, м/сВероятность осадков
    02:00Ясно и безоблачно+22°C53 %736 мм1.8 м/с2 %
    05:00Ясно и безоблачно+21°C73 %736 мм3.3 м/с2 %
    08:00Ясно и безоблачно+25°C70 %737 мм2.8 м/с2 %
    11:00Ясно и безоблачно+31°C41 %737 мм4.0 м/с2 %
    14:00Практически безоблачно+33°C32 %737 мм4.1 м/с19 %
    17:00Ясно и безоблачно+34°C30 %736 мм4.1 м/с18 %
    20:00Ясно и безоблачно+32°C32 %736 мм4.4 м/с6 %
    23:00Ясно и безоблачно+27°C40 %737 мм3.8 м/с2 %
  • 17июля
    Среда
    +20°
    +35°
    Ясно и безоблачно
    ВремяПогодаТемператураВлажностьДавлениеВетер, м/сВероятность осадков
    02:00Ясно и безоблачно+24°C47 %736 мм2.5 м/с2 %
    05:00Ясно и безоблачно+22°C62 %736 мм2.2 м/с2 %
    08:00Ясно и безоблачно+25°C59 %737 мм2.0 м/с2 %
    11:00Ясно и безоблачно+31°C35 %737 мм3.7 м/с2 %
    14:00Ясно и безоблачно+34°C24 %737 мм4.6 м/с14 %
    17:00Практически безоблачно+34°C22 %736 мм6.9 м/с8 %
    20:00Ясно и безоблачно+30°C28 %736 мм6.3 м/с2 %
    23:00Ясно и безоблачно+25°C38 %737 мм3.5 м/с2 %
  • 18июля
    Четверг
    +19°
    +34°
    Практически безоблачно
    ВремяПогодаТемператураВлажностьДавлениеВетер, м/сВероятность осадков
    02:00Ясно и безоблачно+22°C44 %737 мм2.8 м/с2 %
    05:00Ясно и безоблачно+21°C52 %736 мм2.8 м/с2 %
    08:00Ясно и безоблачно+24°C54 %737 мм2.4 м/с2 %
    11:00Ясно и безоблачно+30°C37 %737 мм4.2 м/с2 %
    14:00Практически безоблачно+33°C29 %737 мм4.4 м/с14 %
    17:00Практически безоблачно+33°C29 %736 мм5.1 м/с10 %
    20:00Ясно и безоблачно+30°C37 %736 мм5.6 м/с2 %
    23:00Ясно и безоблачно+25°C39 %736 мм3.8 м/с2 %
  • 19июля
    Пятница
    +21°
    +35°
    Практически безоблачно
    ВремяПогодаТемператураВлажностьДавлениеВетер, м/сВероятность осадков
    02:00Ясно и безоблачно+23°C51 %736 мм2.3 м/с2 %
    05:00Ясно и безоблачно+21°C60 %736 мм2.2 м/с2 %
    08:00Ясно и безоблачно+25°C60 %736 мм1.7 м/с2 %
    11:00Ясно и безоблачно+31°C37 %736 мм2.7 м/с2 %
    14:00Практически безоблачно+34°C25 %735 мм4.8 м/с12 %
    17:00Небольшая облачность+34°C26 %735 мм5.2 м/с12 %
    20:00Практически безоблачно+32°C28 %734 мм4.9 м/с5 %
    23:00Ясно и безоблачно+28°C34 %735 мм3.1 м/с2 %
Мы используем cookies
Соглашаюсь